Time;durP1;ratioP1;P1;durP2;ratioP2;P2;SDS_P1;SDS_P2;PMS_P1;PMS_P2;Temp;Humidity;BMP_temperature;BMP_pressure;BME280_temperature;BME280_humidity;BME280_pressure;Samples;Min_cycle;Max_cycle;Signal;HPM_P1;HPM_P2
2022/05/17 00:01:44;;;;;;;21.90;18.73;;;;;;;;;;5093779;28;20548;-54
2022/05/17 00:04:11;;;;;;;20.87;18.97;;;;;;;;;;5093501;28;20198;-55
2022/05/17 00:06:37;;;;;;;20.07;17.93;;;;;;;;;;5094013;28;20238;-55
2022/05/17 00:09:03;;;;;;;25.13;20.40;;;;;;;;;;5093777;28;20206;-55
2022/05/17 00:11:29;;;;;;;21.53;18.20;;;;;;;;;;5093646;28;20238;-55
2022/05/17 00:13:56;;;;;;;23.37;19.17;;;;;;;;;;5093674;28;20195;-55
2022/05/17 00:16:23;;;;;;;23.27;19.10;;;;;;;;;;5093290;28;20281;-56
2022/05/17 00:18:49;;;;;;;22.37;19.97;;;;;;;;;;5093293;28;20205;-55
2022/05/17 00:21:15;;;;;;;27.27;20.60;;;;;;;;;;5093328;28;20533;-56
2022/05/17 00:23:42;;;;;;;24.67;20.60;;;;;;;;;;5093071;28;20202;-56
2022/05/17 00:26:08;;;;;;;20.57;18.33;;;;;;;;;;5091293;28;20800;-55
2022/05/17 00:28:36;;;;;;;23.37;19.80;;;;;;;;;;5093009;28;20202;-54
2022/05/17 00:31:06;;;;;;;21.47;19.37;;;;;;;;;;5092950;28;20237;-54
2022/05/17 00:33:32;;;;;;;21.90;19.67;;;;;;;;;;5093180;28;20541;-55
2022/05/17 00:35:58;;;;;;;21.50;19.20;;;;;;;;;;5093125;28;20669;-55
2022/05/17 00:38:24;;;;;;;22.30;19.07;;;;;;;;;;5092925;28;20229;-55
2022/05/17 00:40:50;;;;;;;24.30;21.47;;;;;;;;;;5092757;28;20213;-55
2022/05/17 00:43:22;;;;;;;21.13;17.93;;;;;;;;;;5091257;28;20199;-54
2022/05/17 00:45:50;;;;;;;23.97;21.40;;;;;;;;;;5092868;28;20202;-54
2022/05/17 00:48:19;;;;;;;23.87;21.00;;;;;;;;;;5093489;28;20692;-54
2022/05/17 00:50:47;;;;;;;22.23;19.67;;;;;;;;;;5092832;28;20664;-54
2022/05/17 00:53:17;;;;;;;24.33;20.83;;;;;;;;;;5092909;28;20211;-55
2022/05/17 00:55:46;;;;;;;24.47;20.70;;;;;;;;;;5092982;28;20201;-54
2022/05/17 00:58:13;;;;;;;23.47;21.00;;;;;;;;;;5092979;28;20209;-54
2022/05/17 01:00:44;;;;;;;26.27;23.47;;;;;;;;;;5092449;28;20201;-54
2022/05/17 01:03:12;;;;;;;23.60;21.13;;;;;;;;;;5092547;28;20202;-54
2022/05/17 01:05:41;;;;;;;25.70;21.53;;;;;;;;;;5092651;28;20687;-54
2022/05/17 01:08:10;;;;;;;27.53;23.90;;;;;;;;;;5092556;28;20199;-54
2022/05/17 01:10:37;;;;;;;26.00;23.20;;;;;;;;;;5092442;28;20231;-55
2022/05/17 01:15:48;;;;;;;30.90;25.60;;;;;;;;;;5092324;28;20237;-55
2022/05/17 01:18:14;;;;;;;26.27;23.30;;;;;;;;;;5092643;28;20248;-54
2022/05/17 01:20:42;;;;;;;25.20;22.50;;;;;;;;;;5092485;28;20191;-54
2022/05/17 01:23:09;;;;;;;27.53;23.80;;;;;;;;;;5092425;28;20199;-55
2022/05/17 01:25:36;;;;;;;24.33;21.30;;;;;;;;;;5092231;28;20237;-54
2022/05/17 01:28:04;;;;;;;24.27;21.77;;;;;;;;;;5092238;28;20290;-55
2022/05/17 01:30:30;;;;;;;27.07;24.23;;;;;;;;;;5092271;28;20276;-54
2022/05/17 01:32:57;;;;;;;27.07;24.37;;;;;;;;;;5092053;28;20268;-54
2022/05/17 01:35:23;;;;;;;24.17;21.47;;;;;;;;;;5092144;28;20478;-54
2022/05/17 01:37:50;;;;;;;24.93;22.43;;;;;;;;;;5091893;28;20206;-54
2022/05/17 01:40:18;;;;;;;28.50;22.73;;;;;;;;;;5092156;28;20613;-55
2022/05/17 01:42:44;;;;;;;25.67;22.27;;;;;;;;;;5092058;28;20217;-56
2022/05/17 01:45:11;;;;;;;21.97;19.63;;;;;;;;;;5091811;28;20635;-55
2022/05/17 01:47:38;;;;;;;23.17;20.77;;;;;;;;;;5091962;28;20415;-55
2022/05/17 01:50:04;;;;;;;26.03;23.23;;;;;;;;;;5091760;28;20202;-54
2022/05/17 01:52:30;;;;;;;28.40;24.47;;;;;;;;;;5092038;28;20588;-54
2022/05/17 01:54:56;;;;;;;25.20;22.57;;;;;;;;;;5091636;28;20222;-55
2022/05/17 01:57:23;;;;;;;25.30;22.63;;;;;;;;;;5092022;28;20217;-54
2022/05/17 01:59:49;;;;;;;24.73;22.20;;;;;;;;;;5091706;28;20210;-55
2022/05/17 02:02:15;;;;;;;27.67;24.73;;;;;;;;;;5092109;28;20201;-55
2022/05/17 02:04:42;;;;;;;26.23;23.50;;;;;;;;;;5091769;28;20275;-54
2022/05/17 02:07:08;;;;;;;24.60;22.10;;;;;;;;;;5091906;28;20215;-55
2022/05/17 02:09:34;;;;;;;23.83;21.30;;;;;;;;;;5091705;28;20231;-55
2022/05/17 02:12:00;;;;;;;26.43;23.70;;;;;;;;;;5091735;28;20635;-55
2022/05/17 02:14:27;;;;;;;26.83;23.93;;;;;;;;;;5091870;28;20205;-55
2022/05/17 02:16:53;;;;;;;29.30;26.30;;;;;;;;;;5091472;28;20257;-54
2022/05/17 02:19:20;;;;;;;28.07;25.07;;;;;;;;;;5091810;28;20203;-56
2022/05/17 02:21:50;;;;;;;26.40;23.57;;;;;;;;;;5091717;28;20199;-55
2022/05/17 02:24:16;;;;;;;28.93;25.80;;;;;;;;;;5091645;28;20283;-54
2022/05/17 02:26:42;;;;;;;29.00;26.10;;;;;;;;;;5091817;28;20221;-55
2022/05/17 02:29:08;;;;;;;27.03;24.10;;;;;;;;;;5091634;28;20222;-56
2022/05/17 02:31:36;;;;;;;28.80;25.80;;;;;;;;;;5091577;28;20230;-54
2022/05/17 02:34:02;;;;;;;28.10;25.13;;;;;;;;;;5091594;28;20230;-55
2022/05/17 02:36:29;;;;;;;25.60;23.00;;;;;;;;;;5091506;28;20681;-55
2022/05/17 02:38:55;;;;;;;26.57;23.87;;;;;;;;;;5091492;28;20226;-55
2022/05/17 02:41:23;;;;;;;29.20;26.20;;;;;;;;;;5091315;28;20580;-53
2022/05/17 02:43:49;;;;;;;27.37;24.67;;;;;;;;;;5091406;28;20203;-55
2022/05/17 02:46:15;;;;;;;29.03;25.90;;;;;;;;;;5094017;28;20195;-55
2022/05/17 02:48:43;;;;;;;27.80;25.00;;;;;;;;;;5095261;28;20222;-55
2022/05/17 02:51:10;;;;;;;27.77;24.87;;;;;;;;;;5094989;28;20644;-55
2022/05/17 02:53:36;;;;;;;30.53;25.70;;;;;;;;;;5095092;28;20709;-55
2022/05/17 02:56:02;;;;;;;26.47;23.80;;;;;;;;;;5095107;28;20203;-55
2022/05/17 02:58:28;;;;;;;28.23;25.43;;;;;;;;;;5095186;28;20223;-55
2022/05/17 03:00:54;;;;;;;30.20;26.87;;;;;;;;;;5094774;28;20220;-55
2022/05/17 03:03:20;;;;;;;30.27;27.03;;;;;;;;;;5095002;28;20407;-54
2022/05/17 03:05:47;;;;;;;30.80;26.33;;;;;;;;;;5094906;28;20194;-54
2022/05/17 03:08:13;;;;;;;30.60;27.37;;;;;;;;;;5094775;28;20209;-54
2022/05/17 03:10:39;;;;;;;32.57;28.37;;;;;;;;;;5094941;28;20215;-54
2022/05/17 03:13:05;;;;;;;36.53;29.43;;;;;;;;;;5094965;28;20542;-54
2022/05/17 03:15:31;;;;;;;32.63;29.23;;;;;;;;;;5094782;28;20191;-54
2022/05/17 03:17:57;;;;;;;31.43;27.63;;;;;;;;;;5094565;28;20303;-54
2022/05/17 03:20:23;;;;;;;31.93;28.30;;;;;;;;;;5094975;28;20649;-54
2022/05/17 03:22:50;;;;;;;30.70;27.10;;;;;;;;;;5094810;28;20285;-54
2022/05/17 03:25:16;;;;;;;29.27;26.17;;;;;;;;;;5094702;28;20242;-54
2022/05/17 03:27:42;;;;;;;25.33;22.63;;;;;;;;;;5094672;28;20460;-54
2022/05/17 03:30:09;;;;;;;33.83;28.23;;;;;;;;;;5094604;28;20202;-54
2022/05/17 03:32:35;;;;;;;29.47;25.57;;;;;;;;;;5094358;28;20325;-55
2022/05/17 03:35:02;;;;;;;26.27;23.57;;;;;;;;;;5094508;28;20578;-55
2022/05/17 03:37:28;;;;;;;28.33;25.33;;;;;;;;;;5094613;28;20241;-55
2022/05/17 03:39:55;;;;;;;30.33;27.23;;;;;;;;;;5094189;28;20199;-55
2022/05/17 03:42:21;;;;;;;28.43;25.57;;;;;;;;;;5094296;28;20210;-54
2022/05/17 03:44:47;;;;;;;29.93;26.80;;;;;;;;;;5094123;28;20198;-54
2022/05/17 03:47:14;;;;;;;29.03;26.13;;;;;;;;;;5094085;28;20655;-54
2022/05/17 03:49:40;;;;;;;27.87;24.83;;;;;;;;;;5094120;28;20278;-54
2022/05/17 03:52:06;;;;;;;36.80;29.43;;;;;;;;;;5093549;28;20314;-54
2022/05/17 03:54:32;;;;;;;32.33;26.63;;;;;;;;;;5094149;28;20282;-54
2022/05/17 03:56:59;;;;;;;27.97;25.10;;;;;;;;;;5092546;28;20651;-54
2022/05/17 03:59:25;;;;;;;29.77;26.73;;;;;;;;;;5093818;28;20202;-54
2022/05/17 04:01:51;;;;;;;29.93;26.73;;;;;;;;;;5093757;28;20558;-54
2022/05/17 04:04:18;;;;;;;29.17;26.00;;;;;;;;;;5093817;28;20218;-53
2022/05/17 04:06:44;;;;;;;28.17;25.17;;;;;;;;;;5093757;28;20203;-54
2022/05/17 04:09:10;;;;;;;28.73;25.83;;;;;;;;;;5093549;28;20669;-54
2022/05/17 04:11:37;;;;;;;28.30;25.50;;;;;;;;;;5093589;28;20628;-54
2022/05/17 04:14:04;;;;;;;29.10;25.93;;;;;;;;;;5093529;28;20202;-54
2022/05/17 04:16:31;;;;;;;25.70;22.97;;;;;;;;;;5093521;28;20241;-54
2022/05/17 04:18:58;;;;;;;29.13;26.00;;;;;;;;;;5093425;28;20657;-53
2022/05/17 04:21:24;;;;;;;28.67;24.93;;;;;;;;;;5093431;28;20232;-54
2022/05/17 04:23:50;;;;;;;26.13;23.40;;;;;;;;;;5093283;28;20206;-54
2022/05/17 04:26:18;;;;;;;26.10;23.50;;;;;;;;;;5093339;28;20230;-54
2022/05/17 04:28:44;;;;;;;27.43;24.43;;;;;;;;;;5093282;28;20234;-54
2022/05/17 04:31:11;;;;;;;25.80;23.00;;;;;;;;;;5093027;28;20257;-54
2022/05/17 04:33:37;;;;;;;29.13;26.20;;;;;;;;;;5093352;28;20195;-54
2022/05/17 04:36:04;;;;;;;28.00;25.10;;;;;;;;;;5092991;28;20248;-54
2022/05/17 04:38:30;;;;;;;27.20;24.43;;;;;;;;;;5093439;28;20213;-54
2022/05/17 04:40:56;;;;;;;30.23;27.13;;;;;;;;;;5093377;28;20234;-54
2022/05/17 04:43:22;;;;;;;26.87;24.10;;;;;;;;;;5093198;28;20210;-54
2022/05/17 04:45:48;;;;;;;25.90;23.20;;;;;;;;;;5092904;28;20736;-54
2022/05/17 04:48:16;;;;;;;27.07;23.33;;;;;;;;;;5092997;28;20294;-54
2022/05/17 04:50:42;;;;;;;27.03;24.23;;;;;;;;;;5092801;28;20696;-54
2022/05/17 04:53:08;;;;;;;25.13;22.53;;;;;;;;;;5092775;28;20191;-53
2022/05/17 04:55:34;;;;;;;27.70;24.87;;;;;;;;;;5092840;28;20223;-54
2022/05/17 04:58:00;;;;;;;26.13;23.40;;;;;;;;;;5092894;28;20206;-54
2022/05/17 05:00:26;;;;;;;30.83;25.20;;;;;;;;;;5092808;28;20194;-54
2022/05/17 05:02:53;;;;;;;26.23;23.53;;;;;;;;;;5092565;28;20195;-54
2022/05/17 05:05:21;;;;;;;25.83;23.10;;;;;;;;;;5092681;28;20268;-54
2022/05/17 05:07:47;;;;;;;27.10;24.17;;;;;;;;;;5092514;28;20241;-54
2022/05/17 05:10:14;;;;;;;27.43;23.07;;;;;;;;;;5092270;28;20226;-54
2022/05/17 05:12:40;;;;;;;24.80;21.50;;;;;;;;;;5092028;28;20292;-54
2022/05/17 05:15:06;;;;;;;24.90;22.27;;;;;;;;;;5091974;28;20203;-54
2022/05/17 05:17:33;;;;;;;31.03;23.57;;;;;;;;;;5092050;28;20238;-54
2022/05/17 05:19:59;;;;;;;25.40;22.00;;;;;;;;;;5092098;28;20195;-54
2022/05/17 05:22:26;;;;;;;24.00;21.43;;;;;;;;;;5092025;28;20191;-54
2022/05/17 05:24:52;;;;;;;27.23;21.27;;;;;;;;;;5091952;28;20224;-53
2022/05/17 05:27:18;;;;;;;23.60;20.53;;;;;;;;;;5092083;28;20205;-54
2022/05/17 05:29:44;;;;;;;21.87;19.20;;;;;;;;;;5092046;28;20209;-54
2022/05/17 05:32:10;;;;;;;22.63;19.60;;;;;;;;;;5092008;28;20329;-54
2022/05/17 05:34:36;;;;;;;23.20;19.47;;;;;;;;;;5091757;28;20190;-54
2022/05/17 05:37:03;;;;;;;22.70;19.60;;;;;;;;;;5091543;28;20657;-54
2022/05/17 05:39:31;;;;;;;19.90;17.90;;;;;;;;;;5092090;28;20226;-55
2022/05/17 05:41:57;;;;;;;20.90;18.37;;;;;;;;;;5091949;28;20183;-55
2022/05/17 05:44:23;;;;;;;20.90;18.77;;;;;;;;;;5091854;28;20814;-55
2022/05/17 05:46:49;;;;;;;20.17;18.07;;;;;;;;;;5091914;28;20274;-56
2022/05/17 05:49:15;;;;;;;18.40;16.30;;;;;;;;;;5091876;28;20223;-56
2022/05/17 05:51:42;;;;;;;19.60;17.43;;;;;;;;;;5091897;28;20246;-56
2022/05/17 05:54:08;;;;;;;21.10;17.00;;;;;;;;;;5091704;28;20214;-56
2022/05/17 05:56:38;;;;;;;22.93;18.27;;;;;;;;;;5091787;28;20199;-55
2022/05/17 05:59:04;;;;;;;18.47;16.27;;;;;;;;;;5091883;28;20223;-56
2022/05/17 06:01:33;;;;;;;18.50;16.27;;;;;;;;;;5091895;28;20244;-56
2022/05/17 06:03:59;;;;;;;22.77;17.87;;;;;;;;;;5091733;28;20281;-56
2022/05/17 06:06:25;;;;;;;19.77;16.20;;;;;;;;;;5091808;28;20597;-54
2022/05/17 06:08:51;;;;;;;17.70;15.90;;;;;;;;;;5091598;28;20278;-55
2022/05/17 06:11:17;;;;;;;16.83;14.57;;;;;;;;;;5091745;28;20235;-56
2022/05/17 06:13:44;;;;;;;20.17;15.37;;;;;;;;;;5091684;28;20248;-56
2022/05/17 06:16:11;;;;;;;20.17;15.20;;;;;;;;;;5091187;28;20227;-56
2022/05/17 06:18:37;;;;;;;16.20;13.47;;;;;;;;;;5091391;28;20195;-56
2022/05/17 06:21:03;;;;;;;18.63;13.50;;;;;;;;;;5092544;28;20553;-57
2022/05/17 06:23:29;;;;;;;16.47;13.53;;;;;;;;;;5095815;28;20255;-57
2022/05/17 06:25:55;;;;;;;18.63;14.30;;;;;;;;;;5095541;28;20627;-56
2022/05/17 06:28:21;;;;;;;15.00;12.57;;;;;;;;;;5095602;28;20196;-57
2022/05/17 06:30:49;;;;;;;18.10;13.33;;;;;;;;;;5095622;28;20197;-56
2022/05/17 06:33:15;;;;;;;20.13;13.37;;;;;;;;;;5095278;28;20216;-55
2022/05/17 06:35:42;;;;;;;16.00;12.20;;;;;;;;;;5095360;28;20286;-56
2022/05/17 06:38:08;;;;;;;17.27;12.33;;;;;;;;;;5095270;28;20717;-57
2022/05/17 06:40:34;;;;;;;13.37;11.23;;;;;;;;;;5095278;28;20221;-56
2022/05/17 06:43:00;;;;;;;16.77;11.60;;;;;;;;;;5095294;28;20204;-57
2022/05/17 06:45:26;;;;;;;12.87;9.80;;;;;;;;;;5095425;28;20209;-57
2022/05/17 06:47:54;;;;;;;11.67;9.53;;;;;;;;;;5095246;28;20198;-57
2022/05/17 06:50:20;;;;;;;13.57;10.03;;;;;;;;;;5095292;28;20218;-57
2022/05/17 06:52:46;;;;;;;12.80;9.17;;;;;;;;;;5095209;28;20309;-57
2022/05/17 06:55:13;;;;;;;19.13;10.37;;;;;;;;;;5095125;28;20289;-57
2022/05/17 06:57:40;;;;;;;14.60;8.83;;;;;;;;;;5095127;28;20198;-57
2022/05/17 07:00:08;;;;;;;10.67;7.83;;;;;;;;;;5094800;28;20353;-57
2022/05/17 07:02:34;;;;;;;11.97;8.73;;;;;;;;;;5095030;28;20244;-57
2022/05/17 07:05:02;;;;;;;14.83;9.07;;;;;;;;;;5094827;28;20255;-57
2022/05/17 07:07:28;;;;;;;12.53;8.03;;;;;;;;;;5094951;28;20256;-56
2022/05/17 07:15:24;;;;;;;13.17;7.90;;;;;;;;;;5094588;28;20193;-57
2022/05/17 07:17:51;;;;;;;9.23;7.13;;;;;;;;;;5094449;28;20234;-57
2022/05/17 07:20:18;;;;;;;13.67;7.80;;;;;;;;;;5094630;28;20256;-57
2022/05/17 07:22:44;;;;;;;9.30;7.03;;;;;;;;;;5094797;28;20584;-56
2022/05/17 07:25:10;;;;;;;13.20;7.70;;;;;;;;;;5094264;28;20294;-57
2022/05/17 07:27:36;;;;;;;10.67;6.73;;;;;;;;;;5094556;28;20198;-56
2022/05/17 07:30:02;;;;;;;11.20;6.30;;;;;;;;;;5094327;28;20190;-57
2022/05/17 07:32:28;;;;;;;13.77;7.13;;;;;;;;;;5094210;28;20262;-57
2022/05/17 07:34:54;;;;;;;11.53;6.97;;;;;;;;;;5094344;28;20248;-59
2022/05/17 07:37:22;;;;;;;10.83;5.87;;;;;;;;;;5094393;28;20553;-57
2022/05/17 07:39:48;;;;;;;11.50;5.83;;;;;;;;;;5094290;28;20649;-61
2022/05/17 07:42:14;;;;;;;11.17;6.87;;;;;;;;;;5094142;28;20183;-60
2022/05/17 07:44:40;;;;;;;11.87;5.90;;;;;;;;;;5092398;28;20202;-55
2022/05/17 07:47:06;;;;;;;9.97;5.97;;;;;;;;;;5094104;28;20546;-57
2022/05/17 07:49:33;;;;;;;10.13;6.10;;;;;;;;;;5094418;28;20205;-58
2022/05/17 07:51:59;;;;;;;9.43;6.20;;;;;;;;;;5094076;28;20292;-56
2022/05/17 07:54:26;;;;;;;11.03;6.17;;;;;;;;;;5093964;28;20650;-57
2022/05/17 07:56:52;;;;;;;14.00;6.37;;;;;;;;;;5093799;28;20203;-59
2022/05/17 07:59:18;;;;;;;8.43;5.70;;;;;;;;;;5093881;28;20201;-58
2022/05/17 08:01:44;;;;;;;12.67;6.37;;;;;;;;;;5093970;28;20184;-56
2022/05/17 08:04:10;;;;;;;12.30;5.57;;;;;;;;;;5093491;28;20252;-58
2022/05/17 08:06:36;;;;;;;8.30;5.30;;;;;;;;;;5093740;28;20665;-57
2022/05/17 08:09:02;;;;;;;10.23;6.03;;;;;;;;;;5093648;28;20203;-57
2022/05/17 08:11:29;;;;;;;10.47;5.30;;;;;;;;;;5093818;28;20228;-58
2022/05/17 08:13:55;;;;;;;13.80;6.30;;;;;;;;;;5093948;28;20226;-58
2022/05/17 08:16:21;;;;;;;11.00;6.07;;;;;;;;;;5093403;28;20238;-57
2022/05/17 08:18:47;;;;;;;9.20;4.67;;;;;;;;;;5093970;28;20195;-57
2022/05/17 08:21:13;;;;;;;10.63;4.87;;;;;;;;;;5093837;28;20598;-58
2022/05/17 08:23:39;;;;;;;9.17;4.80;;;;;;;;;;5093877;28;20248;-58
2022/05/17 08:28:52;;;;;;;8.00;5.00;;;;;;;;;;5093535;28;20203;-57
2022/05/17 08:31:18;;;;;;;12.17;5.23;;;;;;;;;;5093503;28;20211;-59
2022/05/17 08:33:44;;;;;;;11.63;5.00;;;;;;;;;;5093528;28;20538;-57
2022/05/17 08:36:11;;;;;;;11.70;5.40;;;;;;;;;;5093356;28;20295;-58
2022/05/17 08:38:39;;;;;;;7.50;4.50;;;;;;;;;;5093481;28;20266;-57
2022/05/17 08:41:13;;;;;;;9.40;4.83;;;;;;;;;;5093385;28;20284;-57
2022/05/17 08:43:43;;;;;;;7.77;4.77;;;;;;;;;;5092344;28;20197;-58
2022/05/17 08:46:26;;;;;;;9.97;5.03;;;;;;;;;;5092715;28;20197;-57
2022/05/17 08:48:53;;;;;;;8.13;4.70;;;;;;;;;;5092906;28;20669;-58
2022/05/17 08:51:25;;;;;;;7.80;4.50;;;;;;;;;;5092802;28;20228;-59
2022/05/17 08:53:52;;;;;;;10.00;5.03;;;;;;;;;;5093181;28;20247;-58
2022/05/17 08:56:18;;;;;;;9.57;5.30;;;;;;;;;;5092735;28;20205;-57
2022/05/17 08:58:46;;;;;;;8.87;5.40;;;;;;;;;;5092954;28;20208;-59
2022/05/17 09:01:15;;;;;;;11.03;5.93;;;;;;;;;;5092621;28;20212;-58
2022/05/17 09:03:47;;;;;;;10.57;5.47;;;;;;;;;;5092784;28;20201;-58
2022/05/17 09:06:17;;;;;;;9.20;4.77;;;;;;;;;;5092736;28;20209;-58
2022/05/17 09:08:50;;;;;;;11.40;5.00;;;;;;;;;;5092913;28;20240;-57
2022/05/17 09:11:21;;;;;;;8.67;4.67;;;;;;;;;;5092818;28;20220;-59
2022/05/17 09:13:49;;;;;;;8.30;5.07;;;;;;;;;;5092538;28;20284;-55
2022/05/17 09:16:15;;;;;;;7.47;5.17;;;;;;;;;;5092239;28;20609;-57
2022/05/17 09:18:44;;;;;;;9.60;4.47;;;;;;;;;;5092652;28;20201;-57
2022/05/17 09:21:21;;;;;;;7.77;4.67;;;;;;;;;;5092343;28;20205;-57
2022/05/17 09:23:47;;;;;;;8.63;5.00;;;;;;;;;;5092538;28;20202;-56
2022/05/17 09:26:18;;;;;;;9.30;5.30;;;;;;;;;;5092330;28;20236;-58
2022/05/17 09:28:47;;;;;;;7.33;4.07;;;;;;;;;;5092307;28;20322;-57
2022/05/17 09:31:16;;;;;;;7.00;3.73;;;;;;;;;;5092017;28;20226;-56
2022/05/17 09:33:43;;;;;;;6.63;3.73;;;;;;;;;;5092200;28;20209;-56
2022/05/17 09:36:13;;;;;;;7.23;3.93;;;;;;;;;;5092053;28;20574;-58
2022/05/17 09:38:39;;;;;;;9.00;4.50;;;;;;;;;;5092191;28;20204;-57
2022/05/17 09:41:06;;;;;;;10.83;5.03;;;;;;;;;;5091922;28;20601;-56
2022/05/17 09:43:40;;;;;;;6.80;3.50;;;;;;;;;;5091911;28;20280;-57
2022/05/17 09:46:09;;;;;;;7.67;3.80;;;;;;;;;;5091940;28;20655;-57
2022/05/17 09:54:27;;;;;;;10.17;3.80;;;;;;;;;;5091773;28;20193;-57
2022/05/17 09:56:53;;;;;;;9.00;3.57;;;;;;;;;;5091802;28;20195;-57
2022/05/17 09:59:22;;;;;;;7.10;3.20;;;;;;;;;;5091516;28;20650;-58
2022/05/17 10:01:48;;;;;;;6.53;3.07;;;;;;;;;;5091706;28;20260;-57
2022/05/17 10:04:19;;;;;;;6.97;3.00;;;;;;;;;;5091588;28;20206;-57
2022/05/17 10:06:47;;;;;;;4.77;2.97;;;;;;;;;;5091682;28;20187;-57
2022/05/17 10:09:26;;;;;;;6.40;3.40;;;;;;;;;;5091541;28;20211;-57
2022/05/17 10:11:53;;;;;;;6.43;3.33;;;;;;;;;;5091493;28;20310;-57
2022/05/17 10:14:22;;;;;;;6.90;2.90;;;;;;;;;;5091579;28;20207;-57
2022/05/17 10:16:50;;;;;;;7.30;2.97;;;;;;;;;;5091575;28;20243;-57
2022/05/17 10:19:19;;;;;;;7.23;2.90;;;;;;;;;;5091921;28;20203;-57
2022/05/17 10:21:48;;;;;;;3.83;2.30;;;;;;;;;;5090534;28;20237;-57
2022/05/17 10:24:18;;;;;;;4.97;2.47;;;;;;;;;;5091649;28;20619;-57
2022/05/17 10:26:45;;;;;;;6.97;2.70;;;;;;;;;;5091947;28;20201;-57
2022/05/17 10:29:16;;;;;;;8.07;3.40;;;;;;;;;;5091549;28;20193;-57
2022/05/17 10:31:46;;;;;;;5.93;2.50;;;;;;;;;;5091778;28;20243;-57
2022/05/17 10:34:21;;;;;;;4.53;2.50;;;;;;;;;;5091610;28;20263;-57
2022/05/17 10:36:50;;;;;;;6.57;2.40;;;;;;;;;;5091749;28;20204;-57
2022/05/17 10:39:24;;;;;;;8.23;2.60;;;;;;;;;;5091573;28;20614;-57
2022/05/17 10:41:51;;;;;;;7.53;2.70;;;;;;;;;;5086639;28;20192;-58
2022/05/17 10:44:19;;;;;;;9.87;2.73;;;;;;;;;;5088508;28;20656;-58
2022/05/17 10:46:48;;;;;;;5.23;2.60;;;;;;;;;;5091610;28;20301;-58
2022/05/17 10:49:20;;;;;;;8.20;3.27;;;;;;;;;;5091301;28;20220;-58
2022/05/17 10:51:51;;;;;;;8.80;2.93;;;;;;;;;;5091264;28;20558;-59
2022/05/17 10:54:24;;;;;;;5.27;2.70;;;;;;;;;;5091238;28;20214;-59
2022/05/17 10:56:51;;;;;;;5.23;2.50;;;;;;;;;;5091240;28;20233;-59
2022/05/17 10:59:25;;;;;;;6.50;2.87;;;;;;;;;;5091120;28;20718;-58
2022/05/17 11:01:54;;;;;;;4.60;2.83;;;;;;;;;;5091343;28;20254;-60
2022/05/17 11:04:57;;;;;;;5.37;2.63;;;;;;;;;;5091165;28;20280;-59
2022/05/17 11:07:28;;;;;;;8.10;3.00;;;;;;;;;;5084002;28;20206;-59
2022/05/17 11:09:59;;;;;;;8.03;2.70;;;;;;;;;;5094547;28;20203;-59
2022/05/17 11:12:27;;;;;;;6.53;2.60;;;;;;;;;;5094717;28;20240;-59
2022/05/17 11:14:55;;;;;;;6.33;2.40;;;;;;;;;;5094764;28;20285;-60
2022/05/17 11:17:27;;;;;;;7.33;2.50;;;;;;;;;;5094433;28;20243;-60
2022/05/17 11:19:56;;;;;;;5.90;2.40;;;;;;;;;;5094798;28;20290;-59
2022/05/17 11:22:27;;;;;;;3.83;2.17;;;;;;;;;;5094167;28;20197;-59
2022/05/17 11:25:11;;;;;;;3.63;2.10;;;;;;;;;;5092510;28;20225;-58
2022/05/17 11:27:44;;;;;;;4.37;2.43;;;;;;;;;;5094117;28;20190;-59
2022/05/17 11:30:19;;;;;;;4.73;1.90;;;;;;;;;;5094619;28;20216;-58
2022/05/17 11:33:00;;;;;;;3.30;2.00;;;;;;;;;;5094493;28;20251;-58
2022/05/17 11:35:36;;;;;;;6.07;2.50;;;;;;;;;;5094250;28;20568;-58
2022/05/17 11:38:05;;;;;;;7.17;2.50;;;;;;;;;;5094130;28;20216;-59
2022/05/17 11:40:51;;;;;;;5.40;2.33;;;;;;;;;;5094386;28;20203;-59
2022/05/17 11:46:06;;;;;;;5.37;2.27;;;;;;;;;;5093603;28;20202;-59
2022/05/17 11:48:44;;;;;;;7.07;2.53;;;;;;;;;;5094424;28;20566;-58
2022/05/17 11:51:10;;;;;;;6.50;2.50;;;;;;;;;;5094074;28;20697;-57
2022/05/17 11:53:44;;;;;;;7.17;2.20;;;;;;;;;;5092637;28;20195;-57
2022/05/17 11:56:18;;;;;;;4.47;2.27;;;;;;;;;;5094090;28;20255;-58
2022/05/17 11:58:46;;;;;;;4.20;2.20;;;;;;;;;;5094205;28;20203;-58
2022/05/17 12:01:28;;;;;;;5.73;2.17;;;;;;;;;;5092088;28;20731;-58
2022/05/17 12:03:55;;;;;;;5.90;2.57;;;;;;;;;;5093583;28;20562;-58
2022/05/17 12:06:42;;;;;;;3.60;2.20;;;;;;;;;;5093697;28;20238;-57
2022/05/17 12:09:12;;;;;;;4.17;2.20;;;;;;;;;;5093746;28;20197;-58
2022/05/17 12:11:42;;;;;;;4.23;2.10;;;;;;;;;;5093477;28;20215;-58
2022/05/17 12:14:14;;;;;;;4.47;2.13;;;;;;;;;;5093602;28;20202;-58
2022/05/17 12:16:45;;;;;;;6.27;2.10;;;;;;;;;;5093280;28;20313;-58
2022/05/17 12:19:16;;;;;;;4.77;2.17;;;;;;;;;;5092062;28;20667;-57
2022/05/17 12:21:49;;;;;;;5.50;2.33;;;;;;;;;;5093379;28;20196;-58
2022/05/17 12:24:21;;;;;;;5.17;2.40;;;;;;;;;;5093214;28;20309;-58
2022/05/17 12:26:52;;;;;;;3.30;2.10;;;;;;;;;;5093298;28;20659;-57
2022/05/17 12:32:10;;;;;;;3.90;2.10;;;;;;;;;;5092976;28;20606;-58
2022/05/17 12:34:36;;;;;;;4.33;2.20;;;;;;;;;;5093121;28;20843;-58
2022/05/17 12:37:09;;;;;;;3.27;1.90;;;;;;;;;;5093053;28;20195;-58
2022/05/17 12:45:11;;;;;;;3.97;2.10;;;;;;;;;;5092083;28;20391;-58
2022/05/17 12:47:38;;;;;;;5.97;2.33;;;;;;;;;;5072946;28;20200;-58
2022/05/17 12:50:05;;;;;;;4.80;1.93;;;;;;;;;;5072747;28;20203;-58
2022/05/17 12:52:32;;;;;;;5.50;2.30;;;;;;;;;;5073014;28;20247;-58
2022/05/17 12:55:01;;;;;;;4.67;2.17;;;;;;;;;;5072738;28;20575;-58
2022/05/17 12:57:32;;;;;;;5.17;2.33;;;;;;;;;;5072795;28;20554;-58
2022/05/17 13:00:10;;;;;;;5.03;1.90;;;;;;;;;;5072804;28;20192;-57
2022/05/17 13:02:40;;;;;;;3.00;1.80;;;;;;;;;;5073023;28;20200;-58
2022/05/17 13:05:21;;;;;;;3.30;1.80;;;;;;;;;;5072565;28;20210;-57
2022/05/17 13:07:47;;;;;;;4.00;1.93;;;;;;;;;;5072718;28;20687;-57
2022/05/17 13:10:13;;;;;;;3.47;1.93;;;;;;;;;;5072559;28;20207;-57
2022/05/17 13:12:42;;;;;;;3.50;1.90;;;;;;;;;;5080290;28;20625;-57
2022/05/17 13:15:12;;;;;;;5.60;1.80;;;;;;;;;;5092459;28;20287;-57
2022/05/17 13:17:41;;;;;;;6.80;2.20;;;;;;;;;;5092436;28;20239;-58
2022/05/17 13:20:10;;;;;;;5.60;2.07;;;;;;;;;;5092602;28;20197;-58
2022/05/17 13:22:39;;;;;;;4.07;1.80;;;;;;;;;;5092539;28;20291;-58
2022/05/17 13:25:09;;;;;;;4.50;2.30;;;;;;;;;;5092242;28;20620;-57
2022/05/17 13:27:37;;;;;;;4.10;2.00;;;;;;;;;;5092597;28;20221;-57
2022/05/17 13:30:04;;;;;;;3.20;1.90;;;;;;;;;;5092298;28;20249;-59
2022/05/17 13:32:35;;;;;;;5.63;1.77;;;;;;;;;;5092620;28;20250;-58
2022/05/17 13:35:06;;;;;;;3.50;1.97;;;;;;;;;;5092408;28;20239;-58
2022/05/17 13:37:33;;;;;;;3.67;1.80;;;;;;;;;;5092338;28;20218;-58
2022/05/17 13:40:02;;;;;;;5.40;1.80;;;;;;;;;;5092382;28;20207;-57
2022/05/17 13:42:29;;;;;;;4.33;2.20;;;;;;;;;;5092161;28;20238;-58
2022/05/17 13:44:56;;;;;;;6.20;2.27;;;;;;;;;;5092077;28;20250;-59
2022/05/17 13:47:24;;;;;;;4.50;2.00;;;;;;;;;;5092024;28;20299;-58
2022/05/17 13:49:51;;;;;;;4.37;1.90;;;;;;;;;;5092082;28;20689;-59
2022/05/17 13:52:24;;;;;;;3.80;1.83;;;;;;;;;;5091918;28;20289;-58
2022/05/17 13:54:51;;;;;;;5.20;1.73;;;;;;;;;;5092121;28;20250;-59
2022/05/17 13:57:19;;;;;;;4.47;1.80;;;;;;;;;;5091845;28;20196;-59
2022/05/17 13:59:49;;;;;;;3.73;1.57;;;;;;;;;;5092140;28;20576;-59
2022/05/17 14:02:17;;;;;;;4.17;1.87;;;;;;;;;;5091769;28;20197;-58
2022/05/17 14:04:44;;;;;;;4.20;1.90;;;;;;;;;;5092031;28;20200;-59
2022/05/17 14:07:30;;;;;;;2.87;1.80;;;;;;;;;;5091711;28;20199;-59
2022/05/17 14:13:03;;;;;;;3.33;1.50;;;;;;;;;;5091842;28;20285;-59
2022/05/17 14:15:29;;;;;;;2.90;1.50;;;;;;;;;;5091977;28;20227;-58
2022/05/17 14:17:55;;;;;;;4.77;1.80;;;;;;;;;;5091532;28;20309;-59
2022/05/17 14:20:21;;;;;;;4.43;1.73;;;;;;;;;;5090714;28;20737;-59
2022/05/17 14:22:48;;;;;;;4.23;1.73;;;;;;;;;;5091414;28;20184;-58
2022/05/17 14:25:14;;;;;;;3.50;1.63;;;;;;;;;;5090852;28;20228;-58
2022/05/17 14:27:40;;;;;;;3.10;1.53;;;;;;;;;;5091796;28;20200;-59
2022/05/17 14:30:07;;;;;;;5.93;1.67;;;;;;;;;;5091821;28;20270;-58
2022/05/17 14:32:32;;;;;;;5.87;1.80;;;;;;;;;;5091688;28;20280;-59
2022/05/17 14:34:58;;;;;;;4.33;1.60;;;;;;;;;;5091325;28;20203;-58
2022/05/17 14:37:24;;;;;;;3.57;1.67;;;;;;;;;;5091532;28;20205;-58
2022/05/17 14:39:52;;;;;;;4.70;2.13;;;;;;;;;;5089697;28;20700;-58
2022/05/17 14:42:18;;;;;;;5.60;1.90;;;;;;;;;;5093918;28;20231;-58
2022/05/17 14:44:44;;;;;;;3.17;1.70;;;;;;;;;;5095624;28;20192;-58
2022/05/17 14:47:12;;;;;;;3.63;2.00;;;;;;;;;;5095593;28;20599;-58
2022/05/17 14:49:39;;;;;;;3.13;1.90;;;;;;;;;;5095499;28;20257;-58
2022/05/17 14:52:05;;;;;;;4.97;2.07;;;;;;;;;;5095447;28;20247;-58
2022/05/17 14:54:32;;;;;;;5.13;1.90;;;;;;;;;;5095595;28;20187;-58
2022/05/17 14:56:59;;;;;;;5.50;1.80;;;;;;;;;;5095416;28;20197;-58
2022/05/17 14:59:25;;;;;;;3.50;1.90;;;;;;;;;;5095407;28;20285;-58
2022/05/17 15:01:52;;;;;;;4.43;1.80;;;;;;;;;;5095373;28;20194;-59
2022/05/17 15:04:20;;;;;;;3.53;1.50;;;;;;;;;;5095102;28;20286;-58